• Join FlightAware (Why Join?)
  • Login
  • US Flag 
01:56AM EST


 

Airport Tracker/Info


-or-


 

Live Flight TrackerFlight Track Log ✈ N841AS ✈ 30-Apr-2013 ✈ KATL - KFAY

Flight Track Log - Related Links

Times and Time Zones

All times are in EDT time to prevent confusion due to time zone crossing. See the N841AS flight status page for this flight to view local times or setup timezone preferences in your user account.

Time Position Orientation Groundspeed Altitude Reporting Facility
EDT Latitude Longitude Course Direction KTS MPH feet Rate Location/Type
02:16PM 33.6350 -84.3881 118° Southeast 376 433 2,500  Level Atlanta Center
02:17PM 33.6333 -84.3008 91° East 308 354 5,000 2,580 Climbing Atlanta Center
02:18PM 33.6292 -84.2183 93° East 274 315 7,700 2,760 Climbing Atlanta Center
02:19PM 33.7006 -83.9964 118° Southeast  Level FlightAware Approximate
02:19PM 33.6169 -84.1186 98° East 283 326 10,600  Level Atlanta Center
02:20PM 33.6582 -83.8994 118° Southeast  Level FlightAware Approximate
02:20PM 33.6022 -84.0064 99° East 324 373 11,100  Level Atlanta Center
02:21PM 33.6157 -83.8026 118° Southeast  Level FlightAware Approximate
02:21PM 33.5833 -83.8817 100° East 367 422 12,100  Level Atlanta Center
02:22PM 33.5622 -83.7497 101° East 395 455 13,200 1,200 Climbing Atlanta Center
02:23PM 33.5514 -83.6175 96° East 395 455 14,600 1,380 Climbing Atlanta Center
02:24PM 33.5656 -83.4828 83° East 395 455 16,000 1,260 Climbing Atlanta Center
02:25PM 33.5794 -83.3656 82° East 400 460 17,200 1,200 Climbing Atlanta Center
02:26PM 33.5911 -83.2308 84° East 405 466 18,500 1,320 Climbing Atlanta Center
02:27PM 33.6069 -83.1033 81° East 399 459 19,900 1,200 Climbing Atlanta Center
02:28PM 33.6247 -82.9686 81° East 399 459 21,000 960 Climbing Atlanta Center
02:30PM 33.6525 -82.6831 83° East 406 467 23,100 960 Climbing Jacksonville Center
02:31PM 33.6647 -82.5481 84° East 406 467 24,100 960 Climbing Jacksonville Center
02:32PM 33.6769 -82.4033 84° East 412 474 25,100 1,080 Climbing Jacksonville Center
02:33PM 33.6969 -82.2511 81° East 421 484 26,300 900 Climbing Jacksonville Center
02:34PM 33.7172 -82.1186 80° East 421 484 27,000 300 Climbing Jacksonville Center
02:35PM 33.7475 -81.9758 76° East 416 479 27,000  Level Jacksonville Center
02:36PM 33.7797 -81.8331 75° East 427 491 27,000  Level Jacksonville Center
02:37PM 33.8119 -81.6853 75° East 437 503 27,000  Level Jacksonville Center
02:38PM 33.8667 -81.5444 65° Northeast 454 522 27,000  Level Jacksonville Center
02:39PM 33.9258 -81.4083 62° Northeast 454 522 27,000  Level Jacksonville Center
02:40PM 33.9867 -81.2694 62° Northeast 460 529 27,000  Level Jacksonville Center
02:41PM 34.0475 -81.1356 61° Northeast 460 529 27,000  Level Jacksonville Center
02:42PM 34.1058 -80.9967 63° Northeast 460 529 27,000  Level Jacksonville Center
02:43PM 34.1644 -80.8597 63° Northeast 454 522 27,000 -180 Level Jacksonville Center
02:44PM 34.2244 -80.7203 62° Northeast 454 522 26,700 -660 Descending Jacksonville Center
02:45PM 34.2867 -80.5781 62° Northeast 459 528 25,700 -1,020 Descending Jacksonville Center
02:46PM 34.3444 -80.4331 64° Northeast 459 528 24,700 -1,020 Descending Jacksonville Center
02:47PM 34.4044 -80.2981 62° Northeast 459 528 23,700 -1,020 Descending Jacksonville Center
02:48PM 34.4639 -80.1603 62° Northeast 454 522 22,700 -900 Descending Jacksonville Center
02:49PM 34.5056 -80.0556 64° Northeast 449 517 21,900 -900 Descending Jacksonville Center
02:50PM 34.5628 -79.9150 64° Northeast 430 495 20,900 -1,500 Descending Jacksonville Center
02:51PM 34.6139 -79.7897 64° Northeast 424 488 19,000 -2,760 Descending Jacksonville Center
02:52PM 34.6494 -79.7122 61° Northeast 423 487 16,700 -3,600 Descending Washington Center
02:53PM 34.7131 -79.6244 49° Northeast 403 464 13,500 -2,880 Descending Washington Center
02:54PM 34.7892 -79.5347 44° Northeast 364 419 11,000 -1,260 Descending Washington Center
02:55PM 34.8211 -79.4500 65° Northeast 310 357 11,000 -600 Level Washington Center
02:56PM 34.8517 -79.3453 70° East 296 341 9,800 -1,740 Descending Washington Center
02:57PM 34.8606 -79.2519 83° East 282 325 7,600 -1,920 Descending Washington Center
02:58PM 34.8486 -79.1681 100° East 259 298 6,000 -1,800 Descending Washington Center
02:59PM 34.8406 -79.0892 97° East 254 292 4,000 -1,740 Descending Washington Center
03:00PM 34.8450 -79.0108 86° East 236 272 2,600 -900 Descending Washington Center
03:01PM 34.8794 -78.9694 45° Northeast 182 209 2,300 -360 Descending Washington Center